This is the latest recevied weather packets stored in our database for station/object F4IVW-13. If no packets are shown the sender has not sent any weather packets the latest 10 day(s).
| Time | Temp. | Humidity | Pressure | Rain* | Wind** | Luminosity | Snow |
|---|---|---|---|---|---|---|---|
| 1777906957 | 13.33° C | 99% | 1013.8 hPa | 0 mm | - | 1 W/m² | - |
| 1777906629 | 13.33° C | 99% | 1013.6 hPa | 0 mm | - | 1 W/m² | - |
| 1777906315 | 13.33° C | 99% | 1013.6 hPa | 0 mm | - | 3 W/m² | - |
| 1777905678 | 13.89° C | 99% | 1013.8 hPa | 0.25 mm | - | 4 W/m² | - |
| 1777905363 | 13.89° C | 99% | 1013.8 hPa | 0.25 mm | - | 1 W/m² | - |
| 1777904404 | 13.89° C | 99% | 1013.9 hPa | 0.25 mm | - | 3 W/m² | - |
| 1777902818 | 14.44° C | 99% | 1013.7 hPa | 0 mm | - | 8 W/m² | - |
| 1777901540 | 14.44° C | 99% | 1013.7 hPa | 0 mm | - | 2 W/m² | - |
| 1777901216 | 15° C | 99% | 1013.7 hPa | 0 mm | - | 7 W/m² | - |
| 1777900584 | 15° C | 99% | 1013.6 hPa | 0 mm | - | 6 W/m² | - |
| 1777899948 | 15° C | 99% | 1013.5 hPa | 0 mm | - | 5 W/m² | - |
| 1777899622 | 15° C | 99% | 1013.5 hPa | 0 mm | - | 9 W/m² | - |
| 1777899314 | 14.44° C | 99% | 1013.4 hPa | 0 mm | - | 10 W/m² | - |
| 1777898985 | 14.44° C | 99% | 1013.4 hPa | 0 mm | - | 12 W/m² | - |
| 1777898347 | 13.89° C | 99% | 1013.4 hPa | 1.52 mm | - | 6 W/m² | - |
| 1777897396 | 13.89° C | 99% | 1013.4 hPa | 1.27 mm | - | 2 W/m² | - |
| 1777896438 | 16.67° C | 99% | 1013.1 hPa | 0.25 mm | - | 1 W/m² | - |
| 1777896124 | 17.22° C | 99% | 1013 hPa | 0 mm | - | 0 W/m² | - |
| 1777895493 | 18.89° C | 99% | 1012.6 hPa | 0 mm | - | 0 W/m² | - |
| 1777895174 | 18.89° C | 99% | 1012.6 hPa | 0 mm | - | 2 W/m² | - |
| 1777894849 | 18.33° C | 99% | 1012.6 hPa | 0 mm | - | 9 W/m² | - |
| 1777894532 | 17.78° C | 99% | 1012.8 hPa | 0 mm | - | 26 W/m² | - |
| 1777894220 | 17.78° C | 99% | 1012.8 hPa | 0 mm | - | 9 W/m² | - |
| 1777893895 | 17.78° C | 99% | 1012.7 hPa | 0 mm | - | 3 W/m² | - |
| 1777893585 | 18.33° C | 99% | 1012.9 hPa | 0 mm | - | 2 W/m² | - |
* Rain latest hour (hover to see other rain measurements)
** Current wind speed in m/s (hover to see current wind gust speed)